Time,TemperatureF,DewpointF,PressureIn,WindDirection,WindDirectionDegrees,WindSpeedMPH,WindSpeedGustMPH,Humidity,HourlyPrecipIn,Conditions,Clouds,dailyrainin,SoftwareType,DateUTC
2013-02-21 00:00:00,42.6,39.3,29.93,SE,129,16.0,16.0,88,0.00,,,0.00,Wunderground v.1.15,2013-02-21 00:00:00,
2013-02-21 00:05:00,42.5,39.2,29.94,ENE,74,16.0,16.0,88,0.00,,,0.00,Wunderground v.1.15,2013-02-21 00:05:00,
2013-02-21 00:15:00,42.4,39.1,29.94,SE,131,17.0,17.0,88,0.00,,,0.00,Wunderground v.1.15,2013-02-21 00:15:00,
2013-02-21 00:25:00,42.3,39.3,29.94,ESE,122,18.0,21.0,89,0.00,,,0.00,Wunderground v.1.15,2013-02-21 00:25:00,
2013-02-21 00:30:00,42.2,39.2,29.94,ESE,118,18.0,22.0,89,0.00,,,0.00,Wunderground v.1.15,2013-02-21 00:30:00,
2013-02-21 00:40:00,42.1,38.8,29.94,East,99,16.0,16.0,88,0.00,,,0.00,Wunderground v.1.15,2013-02-21 00:40:00,
2013-02-21 00:50:00,41.8,38.5,29.94,ESE,122,21.0,21.0,88,0.00,,,0.00,Wunderground v.1.15,2013-02-21 00:50:00,
2013-02-21 01:00:00,41.6,38.0,29.94,ESE,109,20.0,21.0,87,0.00,,,0.00,Wunderground v.1.15,2013-02-21 01:00:00,
2013-02-21 01:05:00,41.5,37.6,29.94,East,96,17.0,21.0,86,0.00,,,0.00,Wunderground v.1.15,2013-02-21 01:05:00,
2013-02-21 01:15:00,41.3,37.1,29.94,ESE,117,17.0,17.0,85,0.00,,,0.00,Wunderground v.1.15,2013-02-21 01:15:00,
2013-02-21 01:25:00,41.2,36.4,29.94,NE,52,18.0,21.0,83,0.00,,,0.00,Wunderground v.1.15,2013-02-21 01:25:00,
2013-02-21 01:30:00,41.1,36.3,29.94,SE,130,19.0,19.0,83,0.00,,,0.00,Wunderground v.1.15,2013-02-21 01:30:00,
2013-02-21 01:40:00,41.2,36.1,29.94,ESE,111,19.0,19.0,82,0.00,,,0.00,Wunderground v.1.15,2013-02-21 01:40:00,
2013-02-21 01:50:00,41.3,36.8,29.94,ESE,123,17.0,17.0,84,0.00,,,0.00,Wunderground v.1.15,2013-02-21 01:50:00,
2013-02-21 02:00:00,41.1,36.9,29.94,ENE,65,15.0,19.0,85,0.00,,,0.00,Wunderground v.1.15,2013-02-21 02:00:00,
2013-02-21 02:05:00,41.1,36.9,29.93,SE,126,15.0,19.0,85,0.00,,,0.00,Wunderground v.1.15,2013-02-21 02:05:00,
2013-02-21 02:15:00,41.0,36.8,29.93,SE,140,15.0,22.0,85,0.00,,,0.00,Wunderground v.1.15,2013-02-21 02:15:00,
2013-02-21 02:25:00,40.9,36.7,29.93,ESE,107,15.0,21.0,85,0.00,,,0.00,Wunderground v.1.15,2013-02-21 02:25:00,
2013-02-21 02:35:00,41.0,37.1,29.93,ESE,117,15.0,15.0,86,0.00,,,0.00,Wunderground v.1.15,2013-02-21 02:35:00,
2013-02-21 02:45:00,41.1,37.2,29.93,SE,130,14.0,18.0,86,0.00,,,0.00,Wunderground v.1.15,2013-02-21 02:45:00,
2013-02-21 02:55:00,41.1,37.5,29.93,ESE,112,15.0,19.0,87,0.00,,,0.00,Wunderground v.1.15,2013-02-21 02:55:00,
2013-02-21 03:05:00,41.1,37.5,29.93,ESE,105,15.0,22.0,87,0.00,,,0.00,Wunderground v.1.15,2013-02-21 03:05:00,
2013-02-21 03:15:00,41.2,37.9,29.93,ESE,111,15.0,16.0,88,0.00,,,0.00,Wunderground v.1.15,2013-02-21 03:15:00,
2013-02-21 03:25:00,41.2,37.9,29.92,East,98,16.0,19.0,88,0.00,,,0.00,Wunderground v.1.15,2013-02-21 03:25:00,
2013-02-21 03:35:00,41.3,38.0,29.92,ESE,113,16.0,16.0,88,0.00,,,0.00,Wunderground v.1.15,2013-02-21 03:35:00,
2013-02-21 03:45:00,41.3,38.0,29.92,East,100,16.0,18.0,88,0.00,,,0.00,Wunderground v.1.15,2013-02-21 03:45:00,
2013-02-21 03:55:00,41.3,38.3,29.92,ESE,122,16.0,24.0,89,0.00,,,0.00,Wunderground v.1.15,2013-02-21 03:55:00,
2013-02-21 04:00:00,41.3,38.3,29.92,East,97,16.0,18.0,89,0.00,,,0.00,Wunderground v.1.15,2013-02-21 04:00:00,
2013-02-21 04:05:00,41.3,38.3,29.92,East,99,15.0,18.0,89,0.00,,,0.00,Wunderground v.1.15,2013-02-21 04:05:00,
2013-02-21 04:15:00,41.3,38.3,29.92,SE,126,16.0,24.0,89,0.00,,,0.00,Wunderground v.1.15,2013-02-21 04:15:00,
2013-02-21 04:25:00,41.3,38.3,29.92,ESE,107,15.0,19.0,89,0.00,,,0.00,Wunderground v.1.15,2013-02-21 04:25:00,
2013-02-21 04:30:00,41.3,38.3,29.92,East,99,16.0,18.0,89,0.00,,,0.00,Wunderground v.1.15,2013-02-21 04:30:00,
2013-02-21 04:40:00,41.3,38.3,29.91,SE,134,17.0,19.0,89,0.00,,,0.00,Wunderground v.1.15,2013-02-21 04:40:00,
2013-02-21 04:50:00,41.3,38.3,29.92,ENE,78,17.0,17.0,89,0.00,,,0.00,Wunderground v.1.15,2013-02-21 04:50:00,
2013-02-21 05:00:00,41.3,38.3,29.92,ESE,105,14.0,14.0,89,0.00,,,0.00,Wunderground v.1.15,2013-02-21 05:00:00,
2013-02-21 05:05:00,41.3,38.6,29.92,ESE,109,14.0,14.0,90,0.00,,,0.00,Wunderground v.1.15,2013-02-21 05:05:00,
2013-02-21 05:10:00,41.3,38.6,29.92,ESE,119,14.0,14.0,90,0.00,,,0.00,Wunderground v.1.15,2013-02-21 05:10:00,
2013-02-21 05:15:00,41.1,38.4,29.92,ESE,105,13.0,14.0,90,0.00,,,0.00,Wunderground v.1.15,2013-02-21 05:15:00,
2013-02-21 05:25:00,41.1,38.4,29.92,ESE,118,16.0,19.0,90,0.00,,,0.00,Wunderground v.1.15,2013-02-21 05:25:00,
2013-02-21 05:30:00,41.0,38.6,29.92,ESE,113,15.0,21.0,91,0.00,,,0.00,Wunderground v.1.15,2013-02-21 05:30:00,
2013-02-21 05:40:00,41.0,38.6,29.92,ENE,76,15.0,15.0,91,0.00,,,0.00,Wunderground v.1.15,2013-02-21 05:40:00,
2013-02-21 05:45:00,41.0,38.6,29.92,East,82,14.0,20.0,91,0.00,,,0.00,Wunderground v.1.15,2013-02-21 05:45:00,
2013-02-21 05:55:00,40.9,38.5,29.92,ESE,111,15.0,23.0,91,0.00,,,0.00,Wunderground v.1.15,2013-02-21 05:55:00,
2013-02-21 06:05:00,40.8,38.4,29.92,ESE,111,15.0,20.0,91,0.00,,,0.00,Wunderground v.1.15,2013-02-21 06:05:00,
2013-02-21 06:15:00,40.7,38.3,29.92,ESE,106,16.0,16.0,91,0.00,,,0.00,Wunderground v.1.15,2013-02-21 06:15:00,
2013-02-21 06:25:00,40.6,38.2,29.93,East,99,15.0,17.0,91,0.00,,,0.00,Wunderground v.1.15,2013-02-21 06:25:00,
2013-02-21 06:30:00,40.6,38.2,29.93,East,97,14.0,14.0,91,0.00,,,0.00,Wunderground v.1.15,2013-02-21 06:30:00,
2013-02-21 06:40:00,40.6,38.2,29.93,ESE,121,14.0,14.0,91,0.00,,,0.00,Wunderground v.1.15,2013-02-21 06:40:00,
2013-02-21 06:50:00,40.5,38.1,29.93,East,99,14.0,19.0,91,0.00,,,0.00,Wunderground v.1.15,2013-02-21 06:50:00,
2013-02-21 07:00:00,40.4,38.0,29.93,ESE,123,15.0,17.0,91,0.00,,,0.00,Wunderground v.1.15,2013-02-21 07:00:00,
2013-02-21 07:05:00,40.4,38.0,29.93,SE,124,14.0,17.0,91,0.00,,,0.00,Wunderground v.1.15,2013-02-21 07:05:00,
2013-02-21 07:15:00,40.3,37.9,29.93,ESE,115,14.0,15.0,91,0.00,,,0.00,Wunderground v.1.15,2013-02-21 07:15:00,
2013-02-21 07:25:00,40.1,37.7,29.94,ESE,109,14.0,14.0,91,0.00,,,0.00,Wunderground v.1.15,2013-02-21 07:25:00,
2013-02-21 07:30:00,40.1,37.7,29.94,ESE,112,14.0,19.0,91,0.00,,,0.00,Wunderground v.1.15,2013-02-21 07:30:00,
2013-02-21 07:40:00,40.1,37.7,29.94,East,84,14.0,18.0,91,0.00,,,0.00,Wunderground v.1.15,2013-02-21 07:40:00,
2013-02-21 07:50:00,40.1,37.7,29.95,SE,130,14.0,16.0,91,0.00,,,0.00,Wunderground v.1.15,2013-02-21 07:50:00,
2013-02-21 07:55:00,40.1,37.7,29.95,SE,138,15.0,16.0,91,0.00,,,0.00,Wunderground v.1.15,2013-02-21 07:55:00,
2013-02-21 08:05:00,40.0,37.6,29.95,East,92,16.0,19.0,91,0.00,,,0.00,Wunderground v.1.15,2013-02-21 08:05:00,
2013-02-21 08:15:00,40.0,37.6,29.95,ESE,106,14.0,26.0,91,0.00,,,0.00,Wunderground v.1.15,2013-02-21 08:15:00,
2013-02-21 08:25:00,40.0,37.6,29.95,East,85,14.0,14.0,91,0.00,,,0.00,Wunderground v.1.15,2013-02-21 08:25:00,
2013-02-21 08:35:00,40.0,37.3,29.95,East,82,13.0,13.0,90,0.00,,,0.00,Wunderground v.1.15,2013-02-21 08:35:00,
2013-02-21 08:45:00,39.9,36.9,29.95,ESE,103,14.0,20.0,89,0.00,,,0.00,Wunderground v.1.15,2013-02-21 08:45:00,
2013-02-21 08:50:00,39.9,36.9,29.96,East,89,15.0,24.0,89,0.00,,,0.00,Wunderground v.1.15,2013-02-21 08:50:00,
2013-02-21 09:00:00,39.9,36.6,29.96,ENE,60,15.0,15.0,88,0.00,,,0.00,Wunderground v.1.15,2013-02-21 09:00:00,
2013-02-21 09:05:00,39.8,36.0,29.96,ESE,106,16.0,17.0,86,0.00,,,0.00,Wunderground v.1.15,2013-02-21 09:05:00,
2013-02-21 09:15:00,39.9,35.5,29.96,ESE,102,17.0,22.0,84,0.00,,,0.00,Wunderground v.1.15,2013-02-21 09:15:00,
2013-02-21 09:25:00,40.0,35.6,29.96,SE,124,18.0,23.0,84,0.00,,,0.00,Wunderground v.1.15,2013-02-21 09:25:00,
2013-02-21 09:35:00,40.1,35.7,29.96,ENE,69,16.0,18.0,84,0.00,,,0.00,Wunderground v.1.15,2013-02-21 09:35:00,
2013-02-21 09:45:00,40.0,35.3,29.96,SE,138,18.0,18.0,83,0.00,,,0.00,Wunderground v.1.15,2013-02-21 09:45:00,
2013-02-21 09:55:00,39.9,34.9,29.96,SE,124,16.0,24.0,82,0.00,,,0.00,Wunderground v.1.15,2013-02-21 09:55:00,
2013-02-21 10:05:00,39.9,34.9,29.97,ESE,123,18.0,19.0,82,0.00,,,0.00,Wunderground v.1.15,2013-02-21 10:05:00,
2013-02-21 10:15:00,39.9,34.9,29.97,ESE,111,18.0,23.0,82,0.00,,,0.00,Wunderground v.1.15,2013-02-21 10:15:00,
2013-02-21 10:20:00,39.9,34.5,29.98,ESE,117,17.0,24.0,81,0.00,,,0.00,Wunderground v.1.15,2013-02-21 10:20:00,
2013-02-21 10:30:00,40.0,34.9,29.98,East,100,17.0,17.0,82,0.00,,,0.00,Wunderground v.1.15,2013-02-21 10:30:00,
2013-02-21 10:40:00,39.9,35.2,29.97,ESE,106,15.0,18.0,83,0.00,,,0.00,Wunderground v.1.15,2013-02-21 10:40:00,
2013-02-21 10:45:00,39.8,34.8,29.97,East,80,16.0,19.0,82,0.00,,,0.00,Wunderground v.1.15,2013-02-21 10:45:00,
2013-02-21 10:55:00,39.8,34.8,29.98,SE,126,16.0,16.0,82,0.00,,,0.00,Wunderground v.1.15,2013-02-21 10:55:00,
2013-02-21 11:05:00,39.8,34.8,29.98,ESE,109,16.0,16.0,82,0.00,,,0.00,Wunderground v.1.15,2013-02-21 11:05:00,
2013-02-21 11:15:00,39.8,34.8,29.98,East,88,17.0,27.0,82,0.00,,,0.00,Wunderground v.1.15,2013-02-21 11:15:00,
2013-02-21 11:25:00,39.8,34.8,29.98,East,94,17.0,18.0,82,0.00,,,0.00,Wunderground v.1.15,2013-02-21 11:25:00,
2013-02-21 11:35:00,39.7,34.3,29.98,East,83,17.0,29.0,81,0.00,,,0.00,Wunderground v.1.15,2013-02-21 11:35:00,
2013-02-21 11:45:00,39.8,34.4,29.98,East,98,17.0,18.0,81,0.00,,,0.00,Wunderground v.1.15,2013-02-21 11:45:00,
2013-02-21 11:55:00,39.9,34.5,29.99,SE,134,17.0,26.0,81,0.00,,,0.00,Wunderground v.1.15,2013-02-21 11:55:00,
2013-02-21 12:00:00,40.0,34.6,29.99,SE,130,18.0,18.0,81,0.00,,,0.00,Wunderground v.1.15,2013-02-21 12:00:00,
2013-02-21 12:05:00,40.0,34.6,29.99,SE,135,18.0,18.0,81,0.00,,,0.00,Wunderground v.1.15,2013-02-21 12:05:00,
2013-02-21 12:15:00,40.0,34.6,29.99,ESE,115,14.0,16.0,81,0.00,,,0.00,Wunderground v.1.15,2013-02-21 12:15:00,
2013-02-21 12:25:00,40.1,34.4,29.99,SE,125,16.0,22.0,80,0.00,,,0.00,Wunderground v.1.15,2013-02-21 12:25:00,
2013-02-21 12:30:00,40.0,34.3,29.99,SE,134,17.0,17.0,80,0.00,,,0.00,Wunderground v.1.15,2013-02-21 12:30:00,
2013-02-21 12:40:00,39.9,33.9,29.98,SE,129,18.0,28.0,79,0.00,,,0.00,Wunderground v.1.15,2013-02-21 12:40:00,
2013-02-21 12:50:00,40.0,34.3,29.98,ESE,117,18.0,18.0,80,0.00,,,0.00,Wunderground v.1.15,2013-02-21 12:50:00,
2013-02-21 12:55:00,40.0,34.0,29.98,SE,126,19.0,19.0,79,0.00,,,0.00,Wunderground v.1.15,2013-02-21 12:55:00,
2013-02-21 13:05:00,40.0,34.6,29.98,ESE,109,15.0,18.0,81,0.00,,,0.00,Wunderground v.1.15,2013-02-21 13:05:00,
2013-02-21 13:15:00,39.9,34.9,29.98,ESE,121,17.0,17.0,82,0.00,,,0.00,Wunderground v.1.15,2013-02-21 13:15:00,
2013-02-21 13:25:00,39.9,35.2,29.98,ESE,121,13.0,17.0,83,0.00,,,0.00,Wunderground v.1.15,2013-02-21 13:25:00,
2013-02-21 13:30:00,39.8,35.4,29.98,SE,140,14.0,20.0,84,0.00,,,0.00,Wunderground v.1.15,2013-02-21 13:30:00,
2013-02-21 13:40:00,39.7,35.3,29.98,ESE,119,15.0,17.0,84,0.00,,,0.00,Wunderground v.1.15,2013-02-21 13:40:00,
2013-02-21 13:50:00,39.7,35.6,29.97,ESE,114,14.0,14.0,85,0.00,,,0.00,Wunderground v.1.15,2013-02-21 13:50:00,
2013-02-21 14:00:00,39.7,35.6,29.97,ESE,113,13.0,15.0,85,0.00,,,0.00,Wunderground v.1.15,2013-02-21 14:00:00,
2013-02-21 14:05:00,39.7,35.6,29.97,SE,142,13.0,15.0,85,0.00,,,0.00,Wunderground v.1.15,2013-02-21 14:05:00,
2013-02-21 14:15:00,39.5,35.4,29.97,East,84,14.0,17.0,85,0.00,,,0.00,Wunderground v.1.15,2013-02-21 14:15:00,
2013-02-21 14:25:00,39.4,35.0,29.97,ESE,117,14.0,17.0,84,0.00,,,0.00,Wunderground v.1.15,2013-02-21 14:25:00,
2013-02-21 14:35:00,39.5,35.1,29.97,ENE,58,14.0,17.0,84,0.00,,,0.00,Wunderground v.1.15,2013-02-21 14:35:00,
2013-02-21 14:45:00,39.4,35.3,29.97,ESE,111,15.0,15.0,85,0.00,,,0.00,Wunderground v.1.15,2013-02-21 14:45:00,
2013-02-21 14:55:00,39.4,35.3,29.97,ESE,121,13.0,14.0,85,0.00,,,0.00,Wunderground v.1.15,2013-02-21 14:55:00,
2013-02-21 15:00:00,39.5,35.1,29.97,East,89,14.0,14.0,84,0.00,,,0.00,Wunderground v.1.15,2013-02-21 15:00:00,
2013-02-21 15:05:00,39.6,35.2,29.97,East,79,14.0,14.0,84,0.00,,,0.00,Wunderground v.1.15,2013-02-21 15:05:00,
2013-02-21 15:15:00,39.4,35.0,29.97,SSE,148,14.0,19.0,84,0.00,,,0.00,Wunderground v.1.15,2013-02-21 15:15:00,
2013-02-21 15:25:00,39.3,35.2,29.97,SE,128,12.0,13.0,85,0.00,,,0.00,Wunderground v.1.15,2013-02-21 15:25:00,
2013-02-21 15:30:00,39.3,35.2,29.97,ESE,114,12.0,12.0,85,0.00,,,0.00,Wunderground v.1.15,2013-02-21 15:30:00,
2013-02-21 15:40:00,39.2,34.8,29.97,SE,128,13.0,15.0,84,0.00,,,0.00,Wunderground v.1.15,2013-02-21 15:40:00,
2013-02-21 15:50:00,39.2,35.1,29.97,ESE,111,12.0,15.0,85,0.00,,,0.00,Wunderground v.1.15,2013-02-21 15:50:00,
2013-02-21 15:55:00,39.2,35.1,29.97,SE,128,12.0,15.0,85,0.00,,,0.00,Wunderground v.1.15,2013-02-21 15:55:00,
2013-02-21 16:05:00,39.1,34.7,29.97,ENE,63,14.0,15.0,84,0.00,,,0.00,Wunderground v.1.15,2013-02-21 16:05:00,
2013-02-21 16:15:00,39.1,35.0,29.97,ESE,106,13.0,17.0,85,0.00,,,0.00,Wunderground v.1.15,2013-02-21 16:15:00,
2013-02-21 16:25:00,39.1,34.7,29.97,ESE,115,12.0,13.0,84,0.00,,,0.00,Wunderground v.1.15,2013-02-21 16:25:00,
2013-02-21 16:35:00,39.0,34.3,29.97,ESE,105,12.0,17.0,83,0.00,,,0.00,Wunderground v.1.15,2013-02-21 16:35:00,
2013-02-21 16:40:00,39.0,34.0,29.97,North,360,14.0,14.0,82,0.00,,,0.00,Wunderground v.1.15,2013-02-21 16:40:00,
2013-02-21 16:50:00,39.0,33.4,29.97,ESE,106,13.0,13.0,80,0.00,,,0.00,Wunderground v.1.15,2013-02-21 16:50:00,
2013-02-21 16:55:00,39.1,33.8,29.97,ESE,105,12.0,15.0,81,0.00,,,0.00,Wunderground v.1.15,2013-02-21 16:55:00,
2013-02-21 17:05:00,39.0,34.0,29.96,North,360,12.0,18.0,82,0.00,,,0.00,Wunderground v.1.15,2013-02-21 17:05:00,
2013-02-21 17:15:00,39.0,33.7,29.96,ESE,118,13.0,13.0,81,0.00,,,0.00,Wunderground v.1.15,2013-02-21 17:15:00,
2013-02-21 17:25:00,38.9,33.6,29.97,ESE,117,13.0,14.0,81,0.00,,,0.00,Wunderground v.1.15,2013-02-21 17:25:00,
2013-02-21 17:30:00,38.8,33.5,29.97,North,360,13.0,13.0,81,0.00,,,0.00,Wunderground v.1.15,2013-02-21 17:30:00,
2013-02-21 17:40:00,38.7,33.4,29.97,SE,127,13.0,14.0,81,0.00,,,0.00,Wunderground v.1.15,2013-02-21 17:40:00,
2013-02-21 17:50:00,38.6,33.0,29.97,East,90,13.0,14.0,80,0.00,,,0.00,Wunderground v.1.15,2013-02-21 17:50:00,
2013-02-21 17:55:00,38.6,32.6,29.97,SE,125,14.0,17.0,79,0.00,,,0.00,Wunderground v.1.15,2013-02-21 17:55:00,
2013-02-21 18:05:00,38.6,33.0,29.97,North,360,12.0,14.0,80,0.00,,,0.00,Wunderground v.1.15,2013-02-21 18:05:00,
2013-02-21 18:15:00,38.5,33.5,29.97,ESE,123,12.0,12.0,82,0.00,,,0.00,Wunderground v.1.15,2013-02-21 18:15:00,
2013-02-21 18:25:00,38.3,33.3,29.97,ESE,105,12.0,12.0,82,0.00,,,0.00,Wunderground v.1.15,2013-02-21 18:25:00,
2013-02-21 18:35:00,38.1,33.1,29.97,ESE,121,11.0,11.0,82,0.00,,,0.00,Wunderground v.1.15,2013-02-21 18:35:00,
2013-02-21 18:45:00,38.0,33.0,29.97,East,98,12.0,12.0,82,0.00,,,0.00,Wunderground v.1.15,2013-02-21 18:45:00,
2013-02-21 18:55:00,37.9,32.9,29.98,ESE,106,12.0,13.0,82,0.00,,,0.00,Wunderground v.1.15,2013-02-21 18:55:00,
2013-02-21 19:00:00,37.8,32.8,29.98,ESE,108,12.0,12.0,82,0.00,,,0.00,Wunderground v.1.15,2013-02-21 19:00:00,
2013-02-21 19:05:00,37.8,32.8,29.97,NE,51,13.0,13.0,82,0.00,,,0.00,Wunderground v.1.15,2013-02-21 19:05:00,
2013-02-21 19:15:00,37.8,32.8,29.97,East,95,12.0,17.0,82,0.00,,,0.00,Wunderground v.1.15,2013-02-21 19:15:00,
2013-02-21 19:25:00,37.5,31.9,29.97,North,360,13.0,17.0,80,0.00,,,0.00,Wunderground v.1.15,2013-02-21 19:25:00,
2013-02-21 19:30:00,37.3,31.4,29.97,ESE,102,14.0,14.0,79,0.00,,,0.00,Wunderground v.1.15,2013-02-21 19:30:00,
2013-02-21 19:40:00,37.3,31.4,29.98,East,92,15.0,15.0,79,0.00,,,0.00,Wunderground v.1.15,2013-02-21 19:40:00,
2013-02-21 19:50:00,37.2,31.3,29.98,ESE,111,14.0,23.0,79,0.00,,,0.00,Wunderground v.1.15,2013-02-21 19:50:00,
2013-02-21 20:00:00,37.1,31.5,29.98,ESE,111,14.0,14.0,80,0.00,,,0.00,Wunderground v.1.15,2013-02-21 20:00:00,
2013-02-21 20:06:00,37.1,31.5,29.98,ESE,106,14.0,15.0,80,0.00,,,0.00,Wunderground v.1.15,2013-02-21 20:06:00,
2013-02-21 20:15:00,37.0,31.4,29.98,ESE,105,14.0,15.0,80,0.00,,,0.00,Wunderground v.1.15,2013-02-21 20:15:00,
2013-02-21 20:20:00,36.9,31.3,29.98,East,87,14.0,17.0,80,0.00,,,0.00,Wunderground v.1.15,2013-02-21 20:20:00,
2013-02-21 20:30:00,36.8,30.9,29.98,NE,55,15.0,15.0,79,0.00,,,0.00,Wunderground v.1.15,2013-02-21 20:30:00,
2013-02-21 20:40:00,36.8,30.9,29.98,ESE,103,13.0,13.0,79,0.00,,,0.00,Wunderground v.1.15,2013-02-21 20:40:00,
2013-02-21 20:50:00,36.7,30.8,29.98,North,360,13.0,13.0,79,0.00,,,0.00,Wunderground v.1.15,2013-02-21 20:50:00,
2013-02-21 21:00:00,36.8,30.9,29.98,ESE,120,12.0,14.0,79,0.00,,,0.00,Wunderground v.1.15,2013-02-21 21:00:00,
2013-02-21 21:05:00,36.7,31.1,29.98,ESE,123,12.0,14.0,80,0.00,,,0.00,Wunderground v.1.15,2013-02-21 21:05:00,
2013-02-21 21:15:00,36.7,31.4,29.98,SE,131,11.0,11.0,81,0.00,,,0.00,Wunderground v.1.15,2013-02-21 21:15:00,
2013-02-21 21:20:00,36.7,31.4,29.98,ESE,111,12.0,12.0,81,0.00,,,0.00,Wunderground v.1.15,2013-02-21 21:20:00,
2013-02-21 21:30:00,36.6,31.0,29.98,East,84,12.0,14.0,80,0.00,,,0.00,Wunderground v.1.15,2013-02-21 21:30:00,
2013-02-21 21:40:00,36.5,31.2,29.98,East,92,10.0,10.0,81,0.00,,,0.00,Wunderground v.1.15,2013-02-21 21:40:00,
2013-02-21 21:45:00,36.4,30.8,29.98,East,98,10.0,13.0,80,0.00,,,0.00,Wunderground v.1.15,2013-02-21 21:45:00,
2013-02-21 21:55:00,36.2,30.9,29.98,East,84,12.0,15.0,81,0.00,,,0.00,Wunderground v.1.15,2013-02-21 21:55:00,
2013-02-21 22:05:00,36.2,30.9,29.98,ESE,120,11.0,14.0,81,0.00,,,0.00,Wunderground v.1.15,2013-02-21 22:05:00,
2013-02-21 22:15:00,36.2,30.9,29.98,ENE,62,12.0,14.0,81,0.00,,,0.00,Wunderground v.1.15,2013-02-21 22:15:00,
2013-02-21 22:20:00,36.1,30.8,29.98,ESE,113,12.0,12.0,81,0.00,,,0.00,Wunderground v.1.15,2013-02-21 22:20:00,
2013-02-21 22:25:00,36.1,30.5,29.98,East,95,13.0,13.0,80,0.00,,,0.00,Wunderground v.1.15,2013-02-21 22:25:00,
2013-02-21 22:35:00,36.1,30.5,29.98,East,83,12.0,14.0,80,0.00,,,0.00,Wunderground v.1.15,2013-02-21 22:35:00,
2013-02-21 22:45:00,36.0,30.4,29.98,North,360,15.0,15.0,80,0.00,,,0.00,Wunderground v.1.15,2013-02-21 22:45:00,
2013-02-21 22:55:00,35.9,30.0,29.98,SE,130,13.0,14.0,79,0.00,,,0.00,Wunderground v.1.15,2013-02-21 22:55:00,
2013-02-21 23:05:00,35.9,30.3,29.98,ENE,70,14.0,22.0,80,0.00,,,0.00,Wunderground v.1.15,2013-02-21 23:05:00,
2013-02-21 23:15:00,35.8,30.2,29.98,North,360,12.0,13.0,80,0.00,,,0.00,Wunderground v.1.15,2013-02-21 23:15:00,
2013-02-21 23:20:00,35.8,30.2,29.99,ESE,106,12.0,12.0,80,0.00,,,0.00,Wunderground v.1.15,2013-02-21 23:20:00,
2013-02-21 23:30:00,35.5,29.6,29.99,East,86,11.0,11.0,79,0.00,,,0.00,Wunderground v.1.15,2013-02-21 23:30:00,
2013-02-21 23:40:00,35.5,29.6,29.99,North,360,12.0,12.0,79,0.00,,,0.00,Wunderground v.1.15,2013-02-21 23:40:00,
2013-02-21 23:45:00,35.5,29.3,29.99,ESE,117,13.0,13.0,78,0.00,,,0.00,Wunderground v.1.15,2013-02-21 23:45:00,
2013-02-21 23:55:00,35.5,29.6,29.99,ESE,110,13.0,14.0,79,0.00,,,0.00,Wunderground v.1.15,2013-02-21 23:55:00,